Terminal Aerodrome Forecast
Issued by NWS

Home | Current Version | Previous Version | Text Only | Print | Product List | Glossary On
Versions: 1 2 3 4 5 6 7 8 9 10 11 12 13 14 15 16 17 18 19 20 21 22 23 24 25 26 27 28 29 30 31
000
FTUS41 KBOX 291728
TAFFMH
TAF
KFMH 291728Z 2918/3018 06004KT P6SM BKN250
     FM300300 16004KT P6SM BKN110
     FM300600 16006KT P6SM OVC025
     FM300800 16007KT 3SM -SN OVC020
     FM301000 16008KT 3SM -SNRA OVC015
     FM301100 16008KT 3SM -RASN OVC015
     FM301200 16008KT 2SM -RASN OVC008
     FM301500 19008KT 1SM -RA OVC008=

USA.gov is the U.S. government's official web portal to all federal, state and local government web resources and services.